Terminal Aerodrome Forecast
Issued by NWS

Home | Current Version | Previous Version | Text Only | Print | Product List | Glossary On
Versions: 1 2 3 4 5 6 7 8 9 10 11 12 13 14 15 16 17 18 19 20 21 22
000
FTUS43 KDVN 282332
TAFCID
TAF
KCID 282332Z 2900/2924 19008KT P6SM -RA VCTS SCT050CB BKN150
      TEMPO 2900/2901 6SM -TSRA BR BKN050CB
     FM290100 20007KT P6SM VCSH BKN060 BKN150
     FM290400 25008KT P6SM BKN060 BKN150
     FM290600 30008KT P6SM BKN060 BKN150
     FM290900 32009KT P6SM SCT060 SCT250
     FM291700 31013G17KT P6SM SCT060=

USA.gov is the U.S. government's official web portal to all federal, state and local government web resources and services.